createdAt,value
2023-01-30T00:04:37.517Z,97891.81
2023-01-30T00:09:40.239Z,97871.56
2023-01-30T00:14:43.501Z,98130.81
2023-01-30T00:19:46.341Z,97957.66
2023-01-30T00:24:49.136Z,97889.66
2023-01-30T00:30:02.415Z,98064.69
2023-01-30T00:35:07.849Z,98065.44
2023-01-30T00:40:21.009Z,98078.59
2023-01-30T00:45:42.837Z,98111.59
2023-01-30T00:50:45.779Z,97970.66
2023-01-30T00:55:48.407Z,98109.59
2023-01-30T01:00:52.750Z,98086.00
2023-01-30T01:05:55.785Z,97992.84
2023-01-30T01:10:58.631Z,98052.09
2023-01-30T01:16:01.292Z,97782.59
2023-01-30T01:21:04.954Z,98078.44
2023-01-30T01:26:07.803Z,97918.09
2023-01-30T01:31:11.840Z,98026.88
2023-01-30T01:36:29.425Z,97826.50
2023-01-30T01:41:37.411Z,97895.34
2023-01-30T01:46:49.036Z,98047.44
2023-01-30T01:52:00.942Z,97819.41
2023-01-30T01:57:32.507Z,97909.06
2023-01-30T02:02:47.098Z,97866.34
2023-01-30T02:08:13.003Z,97818.81
2023-01-30T02:13:26.206Z,98022.84
2023-01-30T02:18:32.005Z,97699.69
2023-01-30T02:23:58.133Z,97687.59
2023-01-30T02:29:19.841Z,98004.81
2023-01-30T02:34:41.179Z,98023.53
2023-01-30T02:40:05.472Z,98015.78
2023-01-30T02:45:20.711Z,97814.34
2023-01-30T02:50:31.070Z,97894.16
2023-01-30T02:55:33.770Z,97824.91
2023-01-30T03:01:23.700Z,97949.22
2023-01-30T03:06:32.445Z,97983.28
2023-01-30T03:12:05.986Z,97925.00
2023-01-30T03:17:10.563Z,97978.69
2023-01-30T03:22:13.441Z,97978.31
2023-01-30T03:27:16.548Z,97889.56
2023-01-30T03:32:19.338Z,97890.88
2023-01-30T03:37:22.170Z,97685.94
2023-01-30T03:42:35.115Z,97654.78
2023-01-30T03:47:37.940Z,97835.09
2023-01-30T03:52:40.760Z,97631.47
2023-01-30T03:57:43.520Z,97763.97
2023-01-30T04:02:46.218Z,97706.94
2023-01-30T04:07:57.635Z,97911.53
2023-01-30T04:13:00.386Z,97933.19
2023-01-30T04:18:03.041Z,97880.78
2023-01-30T04:23:15.711Z,97827.53
2023-01-30T04:28:18.250Z,97803.22
2023-01-30T04:33:21.195Z,97677.47
2023-01-30T04:38:24.693Z,97575.94
2023-01-30T04:43:29.369Z,97594.88
2023-01-30T04:48:32.949Z,97750.00
2023-01-30T04:53:35.775Z,97650.44
2023-01-30T04:58:39.303Z,97831.72
2023-01-30T05:03:42.224Z,97780.50
2023-01-30T05:08:46.885Z,97756.97
2023-01-30T05:13:55.694Z,97778.66
2023-01-30T05:18:58.280Z,97720.50
2023-01-30T05:24:01.594Z,97585.88
2023-01-30T05:29:04.527Z,97650.50
2023-01-30T05:34:07.152Z,97799.59
2023-01-30T05:39:09.733Z,97846.06
2023-01-30T05:44:12.736Z,97585.59
2023-01-30T05:49:25.806Z,97907.72
2023-01-30T05:54:28.654Z,97759.03
2023-01-30T05:59:41.412Z,97902.22
2023-01-30T06:04:44.312Z,97925.31
2023-01-30T06:09:57.064Z,97876.97
2023-01-30T06:14:59.719Z,97904.66
2023-01-30T06:20:03.224Z,97727.38
2023-01-30T06:25:06.725Z,97942.22
2023-01-30T06:30:10.324Z,97702.88
2023-01-30T06:35:23.021Z,97916.66
2023-01-30T06:40:25.719Z,97928.75
2023-01-30T06:45:28.324Z,97618.22
2023-01-30T06:50:31.731Z,97925.13
2023-01-30T06:55:36.368Z,97912.38
2023-01-30T07:00:41.219Z,97939.66
2023-01-30T07:05:45.310Z,97941.81
2023-01-30T07:10:48.116Z,97898.72
2023-01-30T07:15:51.429Z,97825.38
2023-01-30T07:21:04.052Z,97946.47
2023-01-30T07:26:07.823Z,97889.38
2023-01-30T07:31:18.686Z,97910.03
2023-01-30T07:36:21.514Z,97872.38
2023-01-30T07:41:24.309Z,97942.41
2023-01-30T07:46:27.112Z,97790.56
2023-01-30T07:51:42.137Z,97872.56
2023-01-30T07:56:45.514Z,97885.97
2023-01-30T08:01:48.222Z,97573.56
2023-01-30T08:06:51.126Z,97583.31
2023-01-30T08:11:53.680Z,97868.22
2023-01-30T08:16:58.164Z,97759.81
2023-01-30T08:22:01.111Z,97737.28
2023-01-30T08:27:13.900Z,97592.53
2023-01-30T08:32:16.556Z,97685.16
2023-01-30T08:37:25.315Z,97666.06
2023-01-30T08:42:33.349Z,97807.22
2023-01-30T08:47:36.483Z,97784.56
2023-01-30T08:52:39.393Z,97773.03
2023-01-30T08:57:51.937Z,97783.88
2023-01-30T09:02:56.485Z,97805.81
2023-01-30T09:07:59.191Z,97660.66
2023-01-30T09:13:02.170Z,97713.81
2023-01-30T09:18:06.094Z,97793.09
2023-01-30T09:23:08.916Z,97731.53
2023-01-30T09:28:11.828Z,97772.00
2023-01-30T09:33:24.897Z,97803.13
2023-01-30T09:38:27.439Z,97769.28
2023-01-30T09:43:48.360Z,97701.75
2023-01-30T09:49:18.281Z,97744.97
2023-01-30T09:54:31.785Z,97788.91
2023-01-30T09:59:57.149Z,97786.06
2023-01-30T10:05:10.555Z,97753.34
2023-01-30T10:11:00.890Z,97756.19
2023-01-30T10:16:46.785Z,97750.03
2023-01-30T10:21:58.693Z,97742.03
2023-01-30T10:27:04.491Z,97717.53
2023-01-30T10:32:30.866Z,97721.44
2023-01-30T10:37:41.385Z,97715.78
2023-01-30T10:43:07.080Z,97703.72
2023-01-30T10:48:46.706Z,97694.91
2023-01-30T10:53:52.425Z,97697.44
2023-01-30T10:59:08.403Z,97680.06
2023-01-30T11:04:36.258Z,97622.22
2023-01-30T11:09:45.699Z,97638.72
2023-01-30T11:15:04.842Z,97613.53
2023-01-30T11:20:13.995Z,97634.44
2023-01-30T11:25:20.712Z,97495.91
2023-01-30T11:30:28.931Z,97625.19
2023-01-30T11:35:33.633Z,97524.00
2023-01-30T11:40:39.842Z,97600.63
2023-01-30T11:45:52.313Z,97560.19
2023-01-30T11:51:05.256Z,97574.81
2023-01-30T11:56:15.166Z,97458.13
2023-01-30T12:01:31.107Z,97575.25
2023-01-30T12:06:37.903Z,97568.88
2023-01-30T12:11:43.221Z,97557.31
2023-01-30T12:16:52.260Z,97535.19
2023-01-30T12:22:21.580Z,97510.50
2023-01-30T12:27:36.697Z,97528.59
2023-01-30T12:32:39.866Z,97503.38
2023-01-30T12:38:05.284Z,97501.03
2023-01-30T12:43:26.604Z,97489.50
2023-01-30T12:48:44.257Z,97494.88
2023-01-30T12:54:28.405Z,97451.41
2023-01-30T12:59:51.709Z,97454.16
2023-01-30T13:05:16.199Z,97461.94
2023-01-30T13:10:58.693Z,97451.41
2023-01-30T13:16:13.261Z,97445.81
2023-01-30T13:21:34.663Z,97385.19
2023-01-30T13:26:39.726Z,97476.19
2023-01-30T13:31:53.232Z,97374.41
2023-01-30T13:37:08.135Z,97470.94
2023-01-30T13:42:34.231Z,97402.47
2023-01-30T13:48:17.283Z,97432.19
2023-01-30T13:53:34.395Z,97356.72
2023-01-30T13:58:49.517Z,97427.81
2023-01-30T14:03:52.600Z,97199.50
2023-01-30T14:09:00.181Z,97430.22
2023-01-30T14:14:22.240Z,97360.88
2023-01-30T14:19:37.673Z,97425.50
2023-01-30T14:25:26.179Z,97387.53
2023-01-30T14:30:31.661Z,97415.63
2023-01-30T14:35:44.692Z,97392.94
2023-01-30T14:41:16.109Z,97393.06
2023-01-30T14:46:18.849Z,97375.84
2023-01-30T14:51:37.248Z,97378.28
2023-01-30T14:56:55.381Z,97375.84
2023-01-30T15:02:14.537Z,97371.50
2023-01-30T15:07:23.292Z,97356.16
2023-01-30T15:12:44.629Z,97381.91
2023-01-30T15:18:08.363Z,97392.25
2023-01-30T15:23:37.171Z,97397.97
2023-01-30T15:28:52.331Z,97388.16
2023-01-30T15:33:59.801Z,97414.81
2023-01-30T15:39:24.708Z,97390.13
2023-01-30T15:44:27.631Z,97419.81
2023-01-30T15:49:57.967Z,97425.34
2023-01-30T15:55:03.231Z,97430.75
2023-01-30T16:00:20.693Z,97425.59
2023-01-30T16:05:25.949Z,97379.53
2023-01-30T16:10:31.856Z,97385.00
2023-01-30T16:15:54.821Z,97422.53
2023-01-30T16:21:02.864Z,97104.78
2023-01-30T16:26:09.942Z,97417.81
2023-01-30T16:31:13.056Z,97403.47
2023-01-30T16:36:22.064Z,97438.09
2023-01-30T16:41:40.199Z,97463.78
2023-01-30T16:47:02.997Z,97457.16
2023-01-30T16:52:25.387Z,97296.03
2023-01-30T16:57:46.524Z,97378.25
2023-01-30T17:03:02.469Z,97489.09
2023-01-30T17:08:05.347Z,97249.81
2023-01-30T17:13:42.611Z,97493.94
2023-01-30T17:18:49.169Z,97453.06
2023-01-30T17:23:55.685Z,97501.22
2023-01-30T17:28:58.690Z,97321.78
2023-01-30T17:34:01.338Z,97227.69
2023-01-30T17:39:04.294Z,97467.84
2023-01-30T17:44:17.390Z,97463.16
2023-01-30T17:49:23.228Z,97526.38
2023-01-30T17:54:27.185Z,97539.28
2023-01-30T17:59:30.221Z,97375.13
2023-01-30T18:04:34.198Z,97275.63
2023-01-30T18:09:46.965Z,97441.47
2023-01-30T18:14:49.570Z,97467.41
2023-01-30T18:20:04.474Z,97510.03
2023-01-30T18:25:07.962Z,97328.47
2023-01-30T18:30:17.429Z,97424.53
2023-01-30T18:35:20.746Z,97467.81
2023-01-30T18:40:25.661Z,97417.50
2023-01-30T18:45:28.377Z,97516.19
2023-01-30T18:50:31.059Z,97280.94
2023-01-30T18:55:34.489Z,97491.13
2023-01-30T19:00:37.108Z,97530.09
2023-01-30T19:05:39.865Z,97569.09
2023-01-30T19:10:43.791Z,97535.34
2023-01-30T19:15:49.014Z,97504.16
2023-01-30T19:20:52.566Z,97495.50
2023-01-30T19:25:57.736Z,97573.44
2023-01-30T19:31:07.029Z,97576.06
2023-01-30T19:36:11.530Z,97576.91
2023-01-30T19:41:17.660Z,97583.84
2023-01-30T19:46:21.853Z,97600.28
2023-01-30T19:51:30.847Z,97463.44
2023-01-30T19:56:35.612Z,97530.13
2023-01-30T20:01:40.839Z,97483.41
2023-01-30T20:06:54.572Z,97482.44
2023-01-30T20:11:58.093Z,97628.91
2023-01-30T20:17:02.081Z,97622.84
2023-01-30T20:22:09.212Z,97515.19
2023-01-30T20:27:12.895Z,97513.56
2023-01-30T20:32:16.795Z,97348.16
2023-01-30T20:37:20.276Z,97365.25
2023-01-30T20:42:23.787Z,97602.00
2023-01-30T20:47:27.285Z,97457.13
2023-01-30T20:52:30.883Z,97516.09
2023-01-30T20:57:44.773Z,97538.72
2023-01-30T21:02:58.428Z,97379.44
2023-01-30T21:08:02.427Z,97616.75
2023-01-30T21:13:06.204Z,97565.47
2023-01-30T21:18:09.559Z,97463.94
2023-01-30T21:23:13.058Z,97437.00
2023-01-30T21:28:16.511Z,97460.44
2023-01-30T21:33:20.245Z,97504.81
2023-01-30T21:38:53.812Z,97716.16
2023-01-30T21:43:57.401Z,97626.69
2023-01-30T21:49:00.755Z,97563.25
2023-01-30T21:54:04.608Z,97480.97
2023-01-30T21:59:08.544Z,97631.63
2023-01-30T22:04:16.938Z,97749.78
2023-01-30T22:09:20.483Z,97645.66
2023-01-30T22:14:23.948Z,97603.19
2023-01-30T22:19:28.453Z,97681.34
2023-01-30T22:24:32.284Z,97741.88
2023-01-30T22:29:36.203Z,97621.41
2023-01-30T22:34:39.874Z,97624.19
2023-01-30T22:39:43.897Z,97646.53
2023-01-30T22:44:47.593Z,97616.03
2023-01-30T22:49:51.180Z,97688.03
2023-01-30T22:54:54.635Z,97738.44
2023-01-30T23:00:02.152Z,97670.81
2023-01-30T23:05:06.009Z,97570.16
2023-01-30T23:10:10.653Z,97620.13
2023-01-30T23:15:14.772Z,97761.22
2023-01-30T23:20:18.425Z,97692.31
2023-01-30T23:25:22.128Z,97727.56
2023-01-30T23:30:26.443Z,97764.97
2023-01-30T23:35:29.905Z,97768.19
2023-01-30T23:40:44.506Z,97451.31
2023-01-30T23:45:48.122Z,97749.25
2023-01-30T23:50:51.715Z,97690.06
2023-01-30T23:55:55.482Z,97483.03
